createdAt,value
2017-09-12T00:01:39.445Z,12.50
2017-09-12T00:04:07.733Z,12.50
2017-09-12T00:06:35.458Z,12.50
2017-09-12T00:09:04.302Z,12.40
2017-09-12T00:11:32.251Z,12.40
2017-09-12T00:14:00.042Z,12.30
2017-09-12T00:16:27.717Z,12.30
2017-09-12T00:18:55.666Z,12.30
2017-09-12T00:21:23.526Z,12.20
2017-09-12T00:23:51.530Z,12.10
2017-09-12T00:26:19.379Z,12.10
2017-09-12T00:28:47.283Z,12.10
2017-09-12T00:31:16.629Z,12.10
2017-09-12T00:33:44.512Z,12.10
2017-09-12T00:36:12.295Z,12.20
2017-09-12T00:38:40.916Z,12.10
2017-09-12T00:41:08.816Z,12.10
2017-09-12T00:43:37.498Z,12.10
2017-09-12T00:46:05.523Z,12.10
2017-09-12T00:48:34.103Z,12.30
2017-09-12T00:51:02.752Z,12.40
2017-09-12T00:53:30.578Z,12.40
2017-09-12T00:55:58.468Z,12.40
2017-09-12T00:58:27.078Z,12.40
2017-09-12T01:00:55.740Z,12.40
2017-09-12T01:03:24.862Z,12.30
2017-09-12T01:05:53.928Z,12.30
2017-09-12T01:08:21.812Z,12.30
2017-09-12T01:10:49.671Z,12.20
2017-09-12T01:13:17.538Z,12.20
2017-09-12T01:15:45.601Z,12.20
2017-09-12T01:18:13.699Z,12.20
2017-09-12T01:20:43.004Z,12.10
2017-09-12T01:23:10.846Z,12.00
2017-09-12T01:25:38.926Z,11.80
2017-09-12T01:28:06.799Z,11.80
2017-09-12T01:30:34.658Z,11.80
2017-09-12T01:33:02.711Z,11.80
2017-09-12T01:35:30.493Z,11.70
2017-09-12T01:37:59.425Z,11.80
2017-09-12T01:40:28.160Z,11.90
2017-09-12T01:42:56.327Z,11.90
2017-09-12T01:45:24.311Z,11.90
2017-09-12T01:47:52.157Z,11.90
2017-09-12T01:50:20.134Z,12.00
2017-09-12T01:52:47.983Z,12.00
2017-09-12T01:55:15.774Z,11.90
2017-09-12T01:57:43.535Z,11.90
2017-09-12T02:00:11.396Z,11.90
2017-09-12T02:02:39.285Z,11.90
2017-09-12T02:05:07.223Z,11.90
2017-09-12T02:07:35.028Z,11.90
2017-09-12T02:10:03.705Z,11.90
2017-09-12T02:12:32.190Z,11.90
2017-09-12T02:15:00.048Z,11.90
2017-09-12T02:17:28.023Z,11.90
2017-09-12T02:19:55.872Z,11.90
2017-09-12T02:22:23.746Z,11.90
2017-09-12T02:24:51.536Z,11.80
2017-09-12T02:27:20.367Z,11.80
2017-09-12T02:29:48.311Z,11.70
2017-09-12T02:32:16.521Z,11.70
2017-09-12T02:34:44.388Z,11.70
2017-09-12T02:37:12.474Z,11.70
2017-09-12T02:39:40.345Z,11.70
2017-09-12T02:42:08.227Z,11.70
2017-09-12T02:44:35.976Z,11.70
2017-09-12T02:47:03.878Z,11.70
2017-09-12T02:49:32.574Z,11.70
2017-09-12T02:52:01.298Z,11.70
2017-09-12T02:54:29.246Z,11.80
2017-09-12T02:56:57.677Z,11.80
2017-09-12T02:59:25.407Z,11.80
2017-09-12T03:01:53.183Z,11.70
2017-09-12T03:04:20.953Z,11.60
2017-09-12T03:06:48.804Z,11.70
2017-09-12T03:09:16.778Z,11.80
2017-09-12T03:11:44.569Z,11.80
2017-09-12T03:14:12.399Z,11.80
2017-09-12T03:16:40.264Z,11.90
2017-09-12T03:19:08.014Z,12.00
2017-09-12T03:21:35.918Z,12.00
2017-09-12T03:24:03.786Z,12.00
2017-09-12T03:26:31.755Z,12.00
2017-09-12T03:28:59.910Z,12.00
2017-09-12T03:31:27.640Z,12.00
2017-09-12T03:33:55.464Z,12.00
2017-09-12T03:36:24.222Z,12.00
2017-09-12T03:38:51.997Z,12.00
2017-09-12T03:41:20.070Z,12.00
2017-09-12T03:43:48.338Z,11.90
2017-09-12T03:46:16.249Z,12.00
2017-09-12T03:48:45.862Z,12.00
2017-09-12T03:51:15.011Z,11.90
2017-09-12T03:53:43.152Z,11.90
2017-09-12T03:56:12.681Z,11.90
2017-09-12T03:58:40.546Z,11.90
2017-09-12T04:01:09.340Z,11.90
2017-09-12T04:03:37.162Z,12.00
2017-09-12T04:06:05.803Z,12.00
2017-09-12T04:08:34.518Z,11.90
2017-09-12T04:11:03.182Z,12.00
2017-09-12T04:13:31.128Z,12.00
2017-09-12T04:15:59.482Z,12.00
2017-09-12T04:18:27.363Z,12.00
2017-09-12T04:20:55.188Z,12.00
2017-09-12T04:23:23.834Z,12.20
2017-09-12T04:25:52.507Z,12.20
2017-09-12T04:28:20.887Z,12.30
2017-09-12T04:30:49.137Z,12.50
2017-09-12T04:33:17.335Z,12.50
2017-09-12T04:35:45.223Z,12.40
2017-09-12T04:38:13.087Z,12.40
2017-09-12T04:40:41.068Z,12.40
2017-09-12T04:43:09.086Z,12.30
2017-09-12T04:45:37.205Z,12.20
2017-09-12T04:48:05.380Z,12.00
2017-09-12T04:50:33.529Z,11.90
2017-09-12T04:53:01.411Z,11.80
2017-09-12T04:55:29.362Z,11.70
2017-09-12T04:57:57.640Z,11.60
2017-09-12T05:00:25.518Z,11.50
2017-09-12T05:02:53.505Z,11.50
2017-09-12T05:05:21.714Z,11.40
2017-09-12T05:07:49.718Z,11.40
2017-09-12T05:10:17.791Z,11.40
2017-09-12T05:12:45.595Z,11.30
2017-09-12T05:15:13.438Z,11.40
2017-09-12T05:17:41.296Z,11.40
2017-09-12T05:20:09.098Z,11.40
2017-09-12T05:22:37.679Z,11.30
2017-09-12T05:25:06.254Z,11.30
2017-09-12T05:27:35.189Z,11.20
2017-09-12T05:30:03.132Z,11.20
2017-09-12T05:32:31.677Z,11.20
2017-09-12T05:35:00.178Z,11.20
2017-09-12T05:37:28.026Z,11.30
2017-09-12T05:39:55.891Z,11.30
2017-09-12T05:42:23.958Z,11.30
2017-09-12T05:44:52.542Z,11.40
2017-09-12T05:47:20.598Z,11.40
2017-09-12T05:49:49.401Z,11.40
2017-09-12T05:52:17.266Z,11.40
2017-09-12T05:54:45.154Z,11.50
2017-09-12T05:57:12.915Z,11.50
2017-09-12T05:59:41.448Z,11.50
2017-09-12T06:02:09.231Z,11.50
2017-09-12T06:04:37.139Z,11.50
2017-09-12T06:07:06.208Z,11.50
2017-09-12T06:09:34.184Z,11.40
2017-09-12T06:12:01.947Z,11.40
2017-09-12T06:14:30.095Z,11.40
2017-09-12T06:16:58.090Z,11.40
2017-09-12T06:19:26.052Z,11.40
2017-09-12T06:21:54.944Z,11.40
2017-09-12T06:24:22.998Z,11.40
2017-09-12T06:26:50.990Z,11.50
2017-09-12T06:29:19.563Z,11.60
2017-09-12T06:31:47.429Z,11.50
2017-09-12T06:34:15.199Z,11.60
2017-09-12T06:36:43.683Z,11.60
2017-09-12T06:39:11.427Z,11.60
2017-09-12T06:41:39.921Z,11.60
2017-09-12T06:44:07.894Z,11.60
2017-09-12T06:46:36.597Z,11.60
2017-09-12T06:49:04.336Z,11.60
2017-09-12T06:51:32.090Z,11.70
2017-09-12T06:53:59.827Z,11.70
2017-09-12T06:56:27.684Z,11.80
2017-09-12T06:58:55.446Z,11.90
2017-09-12T07:01:24.019Z,11.90
2017-09-12T07:03:51.826Z,11.90
2017-09-12T07:06:19.979Z,11.90
2017-09-12T07:08:48.516Z,12.00
2017-09-12T07:11:16.511Z,12.00
2017-09-12T07:13:45.035Z,12.00
2017-09-12T07:16:12.829Z,12.00
2017-09-12T07:18:40.687Z,12.00
2017-09-12T07:21:09.066Z,12.10
2017-09-12T07:23:36.828Z,12.20
2017-09-12T07:26:04.729Z,12.30
2017-09-12T07:28:33.367Z,12.60
2017-09-12T07:31:01.697Z,12.60
2017-09-12T07:33:30.189Z,12.90
2017-09-12T07:35:59.201Z,12.90
2017-09-12T07:38:27.506Z,13.00
2017-09-12T07:40:55.423Z,13.30
2017-09-12T07:43:23.643Z,13.50
2017-09-12T07:45:51.514Z,13.50
2017-09-12T07:48:19.463Z,13.50
2017-09-12T07:50:47.635Z,13.50
2017-09-12T07:53:15.395Z,13.50
2017-09-12T07:55:43.122Z,13.80
2017-09-12T07:58:11.771Z,13.60
2017-09-12T08:00:39.701Z,13.50
2017-09-12T08:03:07.497Z,13.50
2017-09-12T08:05:35.241Z,13.80
2017-09-12T08:08:04.142Z,14.10
2017-09-12T08:10:32.125Z,14.40
2017-09-12T08:13:01.523Z,15.10
2017-09-12T08:15:29.259Z,15.10
2017-09-12T08:17:57.069Z,14.70
2017-09-12T08:20:25.823Z,14.70
2017-09-12T08:22:53.922Z,14.60
2017-09-12T08:25:21.775Z,14.60
2017-09-12T08:27:49.648Z,14.60
2017-09-12T08:30:17.724Z,15.00
2017-09-12T08:32:47.392Z,14.90
2017-09-12T08:35:15.129Z,15.10
2017-09-12T08:37:43.660Z,15.80
2017-09-12T08:40:11.468Z,15.80
2017-09-12T08:42:40.161Z,15.50
2017-09-12T08:45:09.165Z,15.40
2017-09-12T08:47:38.418Z,15.40
2017-09-12T08:50:06.284Z,15.20
2017-09-12T08:52:34.029Z,15.00
2017-09-12T08:55:01.810Z,14.60
2017-09-12T08:57:29.882Z,14.40
2017-09-12T08:59:58.385Z,14.40
2017-09-12T09:02:26.424Z,14.30
2017-09-12T09:04:54.206Z,14.40
2017-09-12T09:07:21.983Z,14.50
2017-09-12T09:09:49.845Z,14.40
2017-09-12T09:12:17.753Z,14.30
2017-09-12T09:14:45.653Z,14.30
2017-09-12T09:17:14.896Z,14.60
2017-09-12T09:19:44.255Z,15.10
2017-09-12T09:22:12.113Z,15.10
2017-09-12T09:24:39.867Z,15.20
2017-09-12T09:27:07.610Z,15.50
2017-09-12T09:29:35.752Z,15.90
2017-09-12T09:32:04.706Z,16.00
2017-09-12T09:34:32.578Z,16.00
2017-09-12T09:37:00.535Z,15.60
2017-09-12T09:39:29.242Z,15.30
2017-09-12T09:41:57.113Z,14.80
2017-09-12T09:44:24.882Z,14.60
2017-09-12T09:46:53.029Z,14.50
2017-09-12T09:49:21.130Z,14.50
2017-09-12T09:51:49.185Z,14.40
2017-09-12T09:54:18.096Z,14.10
2017-09-12T09:56:47.180Z,14.00
2017-09-12T09:59:15.547Z,14.10
2017-09-12T10:01:43.514Z,14.10
2017-09-12T10:04:11.393Z,14.00
2017-09-12T10:06:39.197Z,14.00
2017-09-12T10:09:06.964Z,14.00
2017-09-12T10:11:35.584Z,13.90
2017-09-12T10:14:03.463Z,13.90
2017-09-12T10:16:31.422Z,14.00
2017-09-12T10:18:59.704Z,14.00
2017-09-12T10:21:27.976Z,14.00
2017-09-12T10:23:55.763Z,14.10
2017-09-12T10:26:23.730Z,14.20
2017-09-12T10:28:51.576Z,14.30
2017-09-12T10:31:19.503Z,14.30
2017-09-12T10:33:48.042Z,13.90
2017-09-12T10:36:16.011Z,13.90
2017-09-12T10:38:44.582Z,14.00
2017-09-12T10:41:14.361Z,14.00
2017-09-12T10:43:42.221Z,14.00
2017-09-12T10:46:11.126Z,14.20
2017-09-12T10:48:38.882Z,14.30
2017-09-12T10:51:06.898Z,14.10
2017-09-12T10:53:35.172Z,13.80
2017-09-12T10:56:03.227Z,13.60
2017-09-12T10:58:31.126Z,13.40
2017-09-12T11:00:58.974Z,13.30
2017-09-12T11:03:26.840Z,13.40
2017-09-12T11:05:54.910Z,13.40
2017-09-12T11:08:23.246Z,13.30
2017-09-12T11:10:51.154Z,13.30
2017-09-12T11:13:20.300Z,13.50
2017-09-12T11:15:48.118Z,13.70
2017-09-12T11:18:15.981Z,13.90
2017-09-12T11:20:44.448Z,14.30
2017-09-12T11:23:12.520Z,14.60
2017-09-12T11:25:40.491Z,15.00
2017-09-12T11:28:08.969Z,15.30
2017-09-12T11:30:36.941Z,15.20
2017-09-12T11:33:05.646Z,15.20
2017-09-12T11:35:33.512Z,15.10
2017-09-12T11:38:01.460Z,15.00
2017-09-12T11:40:29.548Z,15.00
2017-09-12T11:42:57.328Z,14.90
2017-09-12T11:45:25.893Z,14.80
2017-09-12T11:47:54.903Z,14.70
2017-09-12T11:50:23.428Z,14.50
2017-09-12T11:52:51.176Z,14.50
2017-09-12T11:55:19.819Z,14.20
2017-09-12T11:57:48.592Z,14.20
2017-09-12T12:00:16.576Z,14.00
2017-09-12T12:02:45.360Z,14.00
2017-09-12T12:05:14.650Z,14.20
2017-09-12T12:07:42.427Z,14.20
2017-09-12T12:10:10.382Z,14.20
2017-09-12T12:12:39.275Z,14.20
2017-09-12T12:15:08.264Z,14.20
2017-09-12T12:17:36.874Z,14.30
2017-09-12T12:20:04.730Z,14.30
2017-09-12T12:22:32.620Z,14.40
2017-09-12T12:25:01.203Z,14.60
2017-09-12T12:27:29.044Z,14.60
2017-09-12T12:29:58.057Z,14.60
2017-09-12T12:32:25.897Z,14.50
2017-09-12T12:34:53.655Z,14.60
2017-09-12T12:37:22.774Z,14.70
2017-09-12T12:39:51.640Z,14.30
2017-09-12T12:42:19.610Z,14.30
2017-09-12T12:44:47.664Z,14.30
2017-09-12T12:47:15.591Z,14.40
2017-09-12T12:49:44.246Z,14.80
2017-09-12T12:52:12.099Z,14.80
2017-09-12T12:54:39.993Z,15.20
2017-09-12T12:57:07.942Z,15.70
2017-09-12T12:59:35.907Z,15.60
2017-09-12T13:02:03.787Z,16.00
2017-09-12T13:04:31.652Z,16.30
2017-09-12T13:06:59.530Z,16.70
2017-09-12T13:09:27.484Z,16.30
2017-09-12T13:11:55.360Z,16.70
2017-09-12T13:14:24.214Z,16.80
2017-09-12T13:16:52.123Z,16.80
2017-09-12T13:19:19.897Z,16.30
2017-09-12T13:21:48.660Z,15.60
2017-09-12T13:24:16.532Z,15.60
2017-09-12T13:26:44.684Z,15.10
2017-09-12T13:29:12.676Z,14.70
2017-09-12T13:31:40.656Z,14.20
2017-09-12T13:34:08.820Z,13.40
2017-09-12T13:36:36.883Z,12.70
2017-09-12T13:39:04.742Z,12.40
2017-09-12T13:41:33.678Z,12.30
2017-09-12T13:44:02.331Z,12.70
2017-09-12T13:46:30.184Z,12.70
2017-09-12T13:48:58.062Z,12.90
2017-09-12T13:51:26.218Z,13.00
2017-09-12T13:53:54.200Z,13.10
2017-09-12T13:56:22.154Z,13.20
2017-09-12T13:58:50.146Z,13.30
2017-09-12T14:01:18.006Z,13.30
2017-09-12T14:03:45.931Z,13.10
2017-09-12T14:06:13.744Z,12.80
2017-09-12T14:08:41.814Z,12.80
2017-09-12T14:11:09.671Z,12.80
2017-09-12T14:13:37.533Z,13.00
2017-09-12T14:16:05.306Z,13.20
2017-09-12T14:18:33.244Z,13.50
2017-09-12T14:21:01.227Z,13.80
2017-09-12T14:23:29.210Z,14.00
2017-09-12T14:25:57.012Z,14.00
2017-09-12T14:28:25.555Z,14.80
2017-09-12T14:30:53.303Z,14.80
2017-09-12T14:33:21.181Z,15.30
2017-09-12T14:35:49.056Z,15.20
2017-09-12T14:38:16.921Z,14.90
2017-09-12T14:40:45.100Z,15.10
2017-09-12T14:43:13.174Z,14.70
2017-09-12T14:45:41.358Z,14.90
2017-09-12T14:48:09.165Z,14.90
2017-09-12T14:50:37.061Z,14.70
2017-09-12T14:53:05.617Z,14.60
2017-09-12T14:55:33.533Z,14.50
2017-09-12T14:58:01.519Z,14.30
2017-09-12T15:00:29.280Z,14.30
2017-09-12T15:02:57.125Z,14.30
2017-09-12T15:05:24.887Z,14.30
2017-09-12T15:07:52.699Z,14.30
2017-09-12T15:10:20.930Z,14.30
2017-09-12T15:12:49.103Z,14.40
2017-09-12T15:15:16.890Z,14.50
2017-09-12T15:17:44.732Z,14.60
2017-09-12T15:20:13.639Z,14.70
2017-09-12T15:22:41.593Z,14.50
2017-09-12T15:25:09.650Z,14.40
2017-09-12T15:27:37.512Z,14.40
2017-09-12T15:30:05.288Z,14.30
2017-09-12T15:32:33.086Z,14.30
2017-09-12T15:35:01.768Z,14.50
2017-09-12T15:37:30.324Z,14.50
2017-09-12T15:39:58.196Z,14.50
2017-09-12T15:42:26.246Z,14.50
2017-09-12T15:44:54.147Z,15.10
2017-09-12T15:47:21.939Z,15.90
2017-09-12T15:49:50.670Z,16.90
2017-09-12T15:52:18.631Z,16.80
2017-09-12T15:54:46.706Z,16.90
2017-09-12T15:57:15.329Z,16.90
2017-09-12T15:59:44.080Z,17.40
2017-09-12T16:02:11.856Z,17.40
2017-09-12T16:04:39.811Z,17.70
2017-09-12T16:07:07.776Z,17.20
2017-09-12T16:09:35.793Z,16.60
2017-09-12T16:12:04.313Z,16.60
2017-09-12T16:14:32.046Z,16.60
2017-09-12T16:17:01.014Z,16.60
2017-09-12T16:19:28.954Z,16.50
2017-09-12T16:21:57.148Z,16.30
2017-09-12T16:24:25.227Z,15.90
2017-09-12T16:26:53.909Z,15.10
2017-09-12T16:29:21.756Z,15.10
2017-09-12T16:31:49.631Z,14.90
2017-09-12T16:34:17.795Z,14.80
2017-09-12T16:36:45.773Z,14.70
2017-09-12T16:39:13.644Z,14.90
2017-09-12T16:41:42.333Z,15.60
2017-09-12T16:44:11.222Z,16.40
2017-09-12T16:46:40.606Z,16.90
2017-09-12T16:49:08.468Z,16.90
2017-09-12T16:51:36.545Z,17.40
2017-09-12T16:54:05.129Z,17.60
2017-09-12T16:56:33.206Z,17.30
2017-09-12T16:59:01.099Z,17.30
2017-09-12T17:01:29.063Z,17.30
2017-09-12T17:03:58.342Z,16.20
2017-09-12T17:06:26.256Z,16.20
2017-09-12T17:08:55.026Z,14.70
2017-09-12T17:11:23.776Z,14.30
2017-09-12T17:13:51.778Z,14.30
2017-09-12T17:16:19.919Z,14.00
2017-09-12T17:18:48.104Z,13.90
2017-09-12T17:21:15.968Z,13.70
2017-09-12T17:23:43.845Z,13.70
2017-09-12T17:26:11.674Z,13.60
2017-09-12T17:28:39.770Z,13.50
2017-09-12T17:31:07.569Z,13.50
2017-09-12T17:33:36.334Z,13.30
2017-09-12T17:36:04.900Z,13.30
2017-09-12T17:38:33.454Z,13.30
2017-09-12T17:41:01.758Z,13.30
2017-09-12T17:43:30.575Z,13.40
2017-09-12T17:45:59.561Z,13.40
2017-09-12T17:48:27.433Z,13.40
2017-09-12T17:50:55.315Z,13.30
2017-09-12T17:53:24.577Z,13.30
2017-09-12T17:55:53.258Z,13.20
2017-09-12T17:58:21.535Z,13.20
2017-09-12T18:00:51.392Z,13.30
2017-09-12T18:03:20.046Z,13.20
2017-09-12T18:05:48.884Z,13.20
2017-09-12T18:08:17.221Z,13.20
2017-09-12T18:10:45.883Z,13.10
2017-09-12T18:13:13.770Z,13.10
2017-09-12T18:15:41.742Z,13.00
2017-09-12T18:18:09.811Z,12.90
2017-09-12T18:20:37.882Z,12.90
2017-09-12T18:23:05.769Z,13.00
2017-09-12T18:25:34.298Z,13.10
2017-09-12T18:28:02.287Z,13.10
2017-09-12T18:30:30.172Z,13.10
2017-09-12T18:32:58.041Z,13.00
2017-09-12T18:35:25.858Z,13.00
2017-09-12T18:37:54.280Z,13.00
2017-09-12T18:40:22.225Z,12.90
2017-09-12T18:42:50.211Z,12.80
2017-09-12T18:45:18.205Z,12.90
2017-09-12T18:47:46.135Z,12.70
2017-09-12T18:50:14.433Z,12.70
2017-09-12T18:52:42.589Z,12.70
2017-09-12T18:55:10.894Z,12.70
2017-09-12T18:57:38.839Z,12.70
2017-09-12T19:00:06.732Z,12.70
2017-09-12T19:02:35.405Z,12.90
2017-09-12T19:05:03.476Z,12.80
2017-09-12T19:07:31.421Z,12.90
2017-09-12T19:09:59.426Z,12.90
2017-09-12T19:12:28.093Z,12.90
2017-09-12T19:14:56.044Z,12.90
2017-09-12T19:17:23.931Z,13.00
2017-09-12T19:19:51.902Z,13.00
2017-09-12T19:22:19.865Z,13.00
2017-09-12T19:24:47.734Z,13.00
2017-09-12T19:27:16.558Z,13.00
2017-09-12T19:29:45.294Z,13.00
2017-09-12T19:32:13.178Z,13.00
2017-09-12T19:34:42.169Z,13.00
2017-09-12T19:37:10.118Z,13.00
2017-09-12T19:39:38.821Z,12.90
2017-09-12T19:42:06.691Z,12.90
2017-09-12T19:44:34.544Z,12.80
2017-09-12T19:47:03.845Z,12.80
2017-09-12T19:49:32.540Z,12.70
2017-09-12T19:52:00.405Z,12.70
2017-09-12T19:54:28.361Z,12.70
2017-09-12T19:56:56.342Z,12.60
2017-09-12T19:59:24.216Z,12.60
2017-09-12T20:01:52.139Z,12.60
2017-09-12T20:04:20.057Z,12.60
2017-09-12T20:06:47.935Z,12.60
2017-09-12T20:09:16.581Z,12.50
2017-09-12T20:11:44.500Z,12.50
2017-09-12T20:14:13.102Z,12.40
2017-09-12T20:16:41.013Z,12.40
2017-09-12T20:19:08.781Z,12.30
2017-09-12T20:21:36.642Z,12.20
2017-09-12T20:24:04.521Z,12.10
2017-09-12T20:26:32.429Z,12.10
2017-09-12T20:29:00.255Z,12.10
2017-09-12T20:31:28.133Z,12.00
2017-09-12T20:33:56.664Z,12.00
2017-09-12T20:36:24.562Z,11.90
2017-09-12T20:38:52.333Z,11.80
2017-09-12T20:41:20.379Z,11.80
2017-09-12T20:43:48.252Z,11.90
2017-09-12T20:46:16.012Z,11.90
2017-09-12T20:48:43.770Z,12.00
2017-09-12T20:51:11.760Z,12.00
2017-09-12T20:53:39.565Z,12.10
2017-09-12T20:56:08.192Z,12.00
2017-09-12T20:58:36.074Z,12.00
2017-09-12T21:01:03.948Z,12.00
2017-09-12T21:03:31.823Z,12.00
2017-09-12T21:05:59.866Z,12.00
2017-09-12T21:08:32.365Z,11.90
2017-09-12T21:11:00.346Z,11.90
2017-09-12T21:13:28.993Z,11.80
2017-09-12T21:15:56.927Z,11.70
2017-09-12T21:18:24.797Z,11.80
2017-09-12T21:20:53.232Z,11.80
2017-09-12T21:23:21.099Z,11.80
2017-09-12T21:25:48.844Z,11.80
2017-09-12T21:28:16.718Z,11.80
2017-09-12T21:30:44.584Z,11.80
2017-09-12T21:33:12.452Z,11.80
2017-09-12T21:35:40.319Z,11.80
2017-09-12T21:38:08.783Z,11.70
2017-09-12T21:40:36.680Z,11.70
2017-09-12T21:43:04.595Z,11.70
2017-09-12T21:45:32.585Z,11.70
2017-09-12T21:48:00.962Z,11.60
2017-09-12T21:50:28.745Z,11.60
2017-09-12T21:52:56.615Z,11.50
2017-09-12T21:55:24.461Z,11.50
2017-09-12T21:57:53.059Z,11.40
2017-09-12T22:00:20.928Z,11.40
2017-09-12T22:02:48.880Z,11.30
2017-09-12T22:05:16.764Z,11.20
2017-09-12T22:07:44.596Z,11.00
2017-09-12T22:10:12.704Z,11.10
2017-09-12T22:12:40.571Z,11.00
2017-09-12T22:15:08.432Z,10.90
2017-09-12T22:17:36.304Z,10.90
2017-09-12T22:20:04.987Z,10.80
2017-09-12T22:22:32.770Z,10.80
2017-09-12T22:25:00.726Z,10.80
2017-09-12T22:27:28.589Z,10.70
2017-09-12T22:29:56.452Z,10.70
2017-09-12T22:32:24.224Z,10.80
2017-09-12T22:34:52.184Z,10.70
2017-09-12T22:37:19.923Z,10.60
2017-09-12T22:39:47.709Z,10.60
2017-09-12T22:42:15.572Z,10.40
2017-09-12T22:44:43.327Z,10.30
2017-09-12T22:47:11.115Z,10.40
2017-09-12T22:49:39.155Z,10.30
2017-09-12T22:52:07.055Z,10.30
2017-09-12T22:54:35.711Z,10.30
2017-09-12T22:57:03.490Z,10.30
2017-09-12T22:59:31.363Z,10.30
2017-09-12T23:02:00.351Z,10.30
2017-09-12T23:04:28.131Z,10.40
2017-09-12T23:06:55.887Z,10.40
2017-09-12T23:09:23.870Z,10.30
2017-09-12T23:11:51.713Z,10.30
2017-09-12T23:14:19.464Z,10.30
2017-09-12T23:16:47.207Z,10.30
2017-09-12T23:19:15.090Z,10.30
2017-09-12T23:21:42.870Z,10.30
2017-09-12T23:24:11.672Z,10.20
2017-09-12T23:26:39.532Z,10.20
2017-09-12T23:29:07.302Z,10.20
2017-09-12T23:31:36.572Z,10.00
2017-09-12T23:34:04.458Z,10.00
2017-09-12T23:36:32.424Z,10.20
2017-09-12T23:39:02.017Z,10.20
2017-09-12T23:41:31.379Z,10.20
2017-09-12T23:44:00.116Z,10.10
2017-09-12T23:46:27.881Z,10.00
2017-09-12T23:48:55.856Z,10.00
2017-09-12T23:51:23.819Z,9.90
2017-09-12T23:53:51.573Z,9.90
2017-09-12T23:56:19.317Z,9.90
2017-09-12T23:58:47.158Z,9.80
